Time,TemperatureF,DewpointF,PressureIn,WindDirection,WindDirectionDegrees,WindSpeedMPH,WindSpeedGustMPH,Humidity,HourlyPrecipIn,Conditions,Clouds,dailyrainin,SoftwareType,DateUTC
2013-01-25 00:00:00,12.6,-17.4,29.88,NW,317,5.6,5.6,24,0.00,,SKC,0.00,VWS V14.01,2013-01-25 05:00:00,
2013-01-25 00:01:00,12.6,-17.4,29.88,WNW,289,4.8,4.8,24,0.00,,SKC,0.00,VWS V14.01,2013-01-25 05:01:00,
2013-01-25 00:06:00,12.6,-17.4,29.88,NNW,327,4.0,4.0,24,0.00,,SKC,0.00,VWS V14.01,2013-01-25 05:06:00,
2013-01-25 00:11:00,12.6,-17.4,29.88,West,276,10.5,10.5,24,0.00,,SKC,0.00,VWS V14.01,2013-01-25 05:11:00,
2013-01-25 00:16:00,12.4,-17.5,29.91,WNW,285,5.6,5.6,24,0.00,,SKC,0.00,VWS V14.01,2013-01-25 05:16:00,
2013-01-25 00:21:00,12.2,-17.7,29.91,NW,308,5.6,5.6,24,0.00,,SKC,0.00,VWS V14.01,2013-01-25 05:21:00,
2013-01-25 00:26:00,12.6,-17.4,29.91,NE,45,4.8,4.8,24,0.00,,SKC,0.00,VWS V14.01,2013-01-25 05:26:00,
2013-01-25 00:31:00,12.6,-17.4,29.91,West,281,6.4,6.4,24,0.00,,SKC,0.00,VWS V14.01,2013-01-25 05:31:00,
2013-01-25 00:36:00,12.2,-17.7,29.91,WSW,245,0.0,6.3,24,0.00,,SKC,0.00,VWS V14.01,2013-01-25 05:36:00,
2013-01-25 00:41:00,12.0,-17.8,29.91,SW,234,5.6,5.6,24,0.00,,SKC,0.00,VWS V14.01,2013-01-25 05:41:00,
2013-01-25 00:46:00,12.0,-17.8,29.91,NNW,335,6.4,6.7,24,0.00,,SKC,0.00,VWS V14.01,2013-01-25 05:46:00,
2013-01-25 00:51:00,12.0,-17.8,29.91,WNW,295,4.0,4.0,24,0.00,,SKC,0.00,VWS V14.01,2013-01-25 05:51:00,
2013-01-25 00:56:00,11.8,-18.0,29.91,NW,319,6.4,6.4,24,0.00,,SKC,0.00,VWS V14.01,2013-01-25 05:56:00,
2013-01-25 01:00:00,11.7,-18.1,29.91,SSE,161,4.0,4.0,24,0.00,,SKC,0.00,VWS V14.01,2013-01-25 06:00:00,
2013-01-25 01:05:00,11.7,-18.1,29.91,SSE,158,6.4,6.4,24,0.00,,SKC,0.00,VWS V14.01,2013-01-25 06:05:00,
2013-01-25 01:10:00,11.7,-18.1,29.91,SSE,150,5.6,5.6,24,0.00,,SKC,0.00,VWS V14.01,2013-01-25 06:10:00,
2013-01-25 01:15:00,11.7,-18.1,29.91,SE,144,0.0,0.0,24,0.00,,SKC,0.00,VWS V14.01,2013-01-25 06:15:00,
2013-01-25 01:20:00,11.7,-18.1,29.91,SE,124,4.8,4.8,24,0.00,,SKC,0.00,VWS V14.01,2013-01-25 06:20:00,
2013-01-25 01:25:00,11.7,-18.1,29.91,SE,145,5.6,5.6,24,0.00,,SKC,0.00,VWS V14.01,2013-01-25 06:25:00,
2013-01-25 01:30:00,11.7,-18.1,29.91,ENE,61,0.0,0.0,24,0.00,,SKC,0.00,VWS V14.01,2013-01-25 06:30:00,
2013-01-25 01:35:00,11.7,-18.1,29.91,North,350,11.3,11.3,24,0.00,,SKC,0.00,VWS V14.01,2013-01-25 06:35:00,
2013-01-25 01:40:00,11.8,-18.0,29.91,NNE,24,0.0,0.0,24,0.00,,SKC,0.00,VWS V14.01,2013-01-25 06:40:00,
2013-01-25 01:45:00,11.8,-18.0,29.91,NNE,24,0.0,0.0,24,0.00,,SKC,0.00,VWS V14.01,2013-01-25 06:45:00,
2013-01-25 01:50:00,11.7,-18.1,29.91,WNW,294,0.0,0.0,24,0.00,,SKC,0.00,VWS V14.01,2013-01-25 06:50:00,
2013-01-25 01:55:00,11.7,-18.1,29.91,ESE,123,4.0,4.0,24,0.00,,SKC,0.00,VWS V14.01,2013-01-25 06:55:00,
2013-01-25 02:00:00,11.5,-18.3,29.91,SW,235,4.8,4.8,24,0.00,,SKC,0.00,VWS V14.01,2013-01-25 07:00:00,
2013-01-25 02:05:00,11.5,-18.3,29.91,East,83,0.0,2.7,24,0.00,,SKC,0.00,VWS V14.01,2013-01-25 07:05:00,
2013-01-25 02:10:00,11.7,-18.1,29.91,WNW,298,4.0,4.0,24,0.00,,SKC,0.00,VWS V14.01,2013-01-25 07:10:00,
2013-01-25 02:15:00,11.8,-18.0,29.91,WNW,292,4.8,4.8,24,0.00,,SKC,0.00,VWS V14.01,2013-01-25 07:15:00,
2013-01-25 02:20:00,11.7,-18.1,29.91,ESE,104,0.0,2.2,24,0.00,,SKC,0.00,VWS V14.01,2013-01-25 07:20:00,
2013-01-25 02:25:00,11.7,-18.1,29.91,SE,139,4.0,4.0,24,0.00,,SKC,0.00,VWS V14.01,2013-01-25 07:25:00,
2013-01-25 02:30:00,11.7,-18.1,29.91,SSW,200,0.0,2.2,24,0.00,,SKC,0.00,VWS V14.01,2013-01-25 07:30:00,
2013-01-25 02:35:00,11.8,-18.0,29.91,NW,314,8.9,8.9,24,0.00,,SKC,0.00,VWS V14.01,2013-01-25 07:35:00,
2013-01-25 02:40:00,11.8,-18.0,29.91,WNW,290,4.8,4.8,24,0.00,,SKC,0.00,VWS V14.01,2013-01-25 07:40:00,
2013-01-25 02:45:00,11.7,-18.1,29.91,North,2,0.0,0.0,24,0.00,,SKC,0.00,VWS V14.01,2013-01-25 07:45:00,
2013-01-25 02:50:00,11.7,-18.1,29.91,West,274,4.8,4.8,24,0.00,,SKC,0.00,VWS V14.01,2013-01-25 07:50:00,
2013-01-25 02:55:00,11.7,-18.1,29.91,North,9,6.4,6.4,24,0.00,,SKC,0.00,VWS V14.01,2013-01-25 07:55:00,
2013-01-25 03:00:00,11.7,-18.1,29.88,ENE,58,4.0,4.0,24,0.00,,SKC,0.00,VWS V14.01,2013-01-25 08:00:00,
2013-01-25 03:05:00,11.7,-18.1,29.88,NNW,341,5.6,5.6,24,0.00,,SKC,0.00,VWS V14.01,2013-01-25 08:05:00,
2013-01-25 03:10:00,11.8,-18.0,29.88,WSW,238,0.0,3.1,24,0.00,,SKC,0.00,VWS V14.01,2013-01-25 08:10:00,
2013-01-25 03:15:00,11.8,-18.0,29.88,North,0,0.0,0.0,24,0.00,,SKC,0.00,VWS V14.01,2013-01-25 08:15:00,
2013-01-25 03:20:00,11.8,-18.0,29.88,West,262,0.0,0.0,24,0.00,,SKC,0.00,VWS V14.01,2013-01-25 08:20:00,
2013-01-25 03:25:00,11.8,-18.0,29.88,NW,314,9.7,9.7,24,0.00,,SKC,0.00,VWS V14.01,2013-01-25 08:25:00,
2013-01-25 03:30:00,11.8,-18.0,29.88,West,281,6.4,6.4,24,0.00,,SKC,0.00,VWS V14.01,2013-01-25 08:30:00,
2013-01-25 03:35:00,11.8,-18.0,29.88,SSW,198,9.7,9.7,24,0.00,,SKC,0.00,VWS V14.01,2013-01-25 08:35:00,
2013-01-25 03:40:00,12.0,-17.8,29.88,NNW,333,0.0,2.7,24,0.00,,SKC,0.00,VWS V14.01,2013-01-25 08:40:00,
2013-01-25 03:45:00,12.0,-17.8,29.88,NNE,16,4.8,4.8,24,0.00,,SKC,0.00,VWS V14.01,2013-01-25 08:45:00,
2013-01-25 03:50:00,11.8,-18.0,29.88,NW,305,0.0,0.0,24,0.00,,SKC,0.00,VWS V14.01,2013-01-25 08:50:00,
2013-01-25 03:55:00,11.8,-18.0,29.88,SSW,203,5.6,5.6,24,0.00,,SKC,0.00,VWS V14.01,2013-01-25 08:55:00,
2013-01-25 04:00:00,11.8,-18.0,29.91,East,99,4.0,4.0,24,0.00,,SKC,0.00,VWS V14.01,2013-01-25 09:00:00,
2013-01-25 04:05:00,11.8,-18.0,29.91,WNW,287,7.2,7.2,24,0.00,,SKC,0.00,VWS V14.01,2013-01-25 09:05:00,
2013-01-25 04:10:00,11.7,-18.1,29.91,WSW,252,0.0,0.0,24,0.00,,SKC,0.00,VWS V14.01,2013-01-25 09:10:00,
2013-01-25 04:15:00,11.7,-18.1,29.91,WNW,286,0.0,0.0,24,0.00,,SKC,0.00,VWS V14.01,2013-01-25 09:15:00,
2013-01-25 04:20:00,11.7,-18.1,29.91,NW,311,7.2,7.2,24,0.00,,SKC,0.00,VWS V14.01,2013-01-25 09:20:00,
2013-01-25 04:25:00,11.8,-18.0,29.91,ESE,113,0.0,0.0,24,0.00,,SKC,0.00,VWS V14.01,2013-01-25 09:25:00,
2013-01-25 04:30:00,11.8,-18.0,29.91,SW,231,0.0,0.0,24,0.00,,SKC,0.00,VWS V14.01,2013-01-25 09:30:00,
2013-01-25 04:35:00,12.6,-17.4,29.91,ESE,120,4.0,4.0,24,0.00,,SKC,0.00,VWS V14.01,2013-01-25 09:35:00,
2013-01-25 04:40:00,12.2,-17.7,29.91,South,180,0.0,0.0,24,0.00,,SKC,0.00,VWS V14.01,2013-01-25 09:40:00,
2013-01-25 04:45:00,13.3,-16.8,29.91,WSW,257,0.0,2.7,24,0.00,,SKC,0.00,VWS V14.01,2013-01-25 09:45:00,
2013-01-25 04:50:00,12.4,-17.5,29.91,SSW,196,5.6,5.6,24,0.00,,SKC,0.00,VWS V14.01,2013-01-25 09:50:00,
2013-01-25 04:55:00,12.0,-17.8,29.91,South,186,6.4,6.4,24,0.00,,SKC,0.00,VWS V14.01,2013-01-25 09:55:00,
2013-01-25 05:00:00,11.7,-18.1,29.91,SW,226,0.0,0.0,24,0.00,,SKC,0.00,VWS V14.01,2013-01-25 10:00:00,
2013-01-25 05:05:00,11.7,-18.1,29.91,WNW,290,0.0,3.1,24,0.00,,SKC,0.00,VWS V14.01,2013-01-25 10:05:00,
2013-01-25 05:10:00,11.7,-18.1,29.91,West,278,0.0,0.0,24,0.00,,SKC,0.00,VWS V14.01,2013-01-25 10:10:00,
2013-01-25 05:15:00,11.7,-18.1,29.91,West,272,0.0,0.0,24,0.00,,SKC,0.00,VWS V14.01,2013-01-25 10:15:00,
2013-01-25 05:20:00,11.7,-18.1,29.91,West,265,0.0,2.7,24,0.00,,SKC,0.00,VWS V14.01,2013-01-25 10:20:00,
2013-01-25 05:25:00,11.7,-18.1,29.91,SW,229,0.0,0.0,24,0.00,,SKC,0.00,VWS V14.01,2013-01-25 10:25:00,
2013-01-25 05:30:00,11.5,-18.3,29.91,SSW,195,0.0,0.0,24,0.00,,SKC,0.00,VWS V14.01,2013-01-25 10:30:00,
2013-01-25 05:35:00,11.5,-18.3,29.91,ESE,111,0.0,0.0,24,0.00,,SKC,0.00,VWS V14.01,2013-01-25 10:35:00,
2013-01-25 05:40:00,11.5,-18.3,29.91,SSW,194,0.0,0.0,24,0.00,,SKC,0.00,VWS V14.01,2013-01-25 10:40:00,
2013-01-25 05:45:00,11.5,-18.3,29.91,SSE,168,0.0,0.0,24,0.00,,SKC,0.00,VWS V14.01,2013-01-25 10:45:00,
2013-01-25 05:50:00,11.7,-18.1,29.91,South,171,0.0,0.0,24,0.00,,SKC,0.00,VWS V14.01,2013-01-25 10:50:00,
2013-01-25 05:55:00,11.7,-18.1,29.91,South,173,4.8,4.8,24,0.00,,SKC,0.00,VWS V14.01,2013-01-25 10:55:00,
2013-01-25 06:00:00,11.7,-18.1,29.91,SSW,192,0.0,0.0,24,0.00,,SKC,0.00,VWS V14.01,2013-01-25 11:00:00,
2013-01-25 06:05:00,11.3,-18.5,29.91,SSW,192,4.0,4.0,24,0.00,,SKC,0.00,VWS V14.01,2013-01-25 11:05:00,
2013-01-25 06:10:00,11.3,-18.5,29.91,South,189,6.4,6.4,24,0.00,,SKC,0.00,VWS V14.01,2013-01-25 11:10:00,
2013-01-25 06:15:00,11.5,-18.3,29.91,South,183,0.0,0.0,24,0.00,,SKC,0.00,VWS V14.01,2013-01-25 11:15:00,
2013-01-25 06:20:00,12.0,-17.8,29.91,SSW,205,4.8,4.8,24,0.00,,SKC,0.00,VWS V14.01,2013-01-25 11:20:00,
2013-01-25 06:25:00,11.8,-18.0,29.91,SSW,212,0.0,0.0,24,0.00,,SKC,0.00,VWS V14.01,2013-01-25 11:25:00,
2013-01-25 06:30:00,11.7,-18.1,29.91,NW,308,8.1,8.1,24,0.00,,SKC,0.00,VWS V14.01,2013-01-25 11:30:00,
2013-01-25 06:35:00,11.7,-18.1,29.91,NW,318,0.0,0.0,24,0.00,,SKC,0.00,VWS V14.01,2013-01-25 11:35:00,
2013-01-25 06:40:00,11.5,-18.3,29.91,West,259,0.0,0.0,24,0.00,,SKC,0.00,VWS V14.01,2013-01-25 11:40:00,
2013-01-25 06:45:00,11.7,-18.1,29.91,West,275,6.4,6.4,24,0.00,,SKC,0.00,VWS V14.01,2013-01-25 11:45:00,
2013-01-25 06:50:00,11.8,-18.0,29.91,West,272,6.4,6.4,24,0.00,,SKC,0.00,VWS V14.01,2013-01-25 11:50:00,
2013-01-25 06:55:00,11.8,-18.0,29.91,West,277,0.0,0.0,24,0.00,,SKC,0.00,VWS V14.01,2013-01-25 11:55:00,
2013-01-25 07:00:00,12.0,-17.8,29.91,NNW,340,4.8,4.8,24,0.00,,SKC,0.00,VWS V14.01,2013-01-25 12:00:00,
2013-01-25 07:05:00,12.0,-17.8,29.91,NW,307,8.9,8.9,24,0.00,,SKC,0.00,VWS V14.01,2013-01-25 12:05:00,
2013-01-25 07:10:00,12.0,-17.8,29.91,WNW,301,0.0,0.0,24,0.00,,SKC,0.00,VWS V14.01,2013-01-25 12:10:00,
2013-01-25 07:15:00,11.8,-18.0,29.91,West,270,4.0,4.0,24,0.00,,SKC,0.00,VWS V14.01,2013-01-25 12:15:00,
2013-01-25 07:20:00,11.8,-18.0,29.91,WNW,297,6.4,6.4,24,0.00,,SKC,0.00,VWS V14.01,2013-01-25 12:20:00,
2013-01-25 07:25:00,12.0,-17.8,29.91,WNW,303,4.0,4.0,24,0.00,,SKC,0.00,VWS V14.01,2013-01-25 12:25:00,
2013-01-25 07:30:00,12.0,-17.8,29.88,WNW,292,6.4,6.4,24,0.00,,SKC,0.00,VWS V14.01,2013-01-25 12:30:00,
2013-01-25 07:35:00,12.0,-17.8,29.88,WNW,292,4.0,4.0,24,0.00,,SKC,0.00,VWS V14.01,2013-01-25 12:35:00,
2013-01-25 07:40:00,12.0,-17.8,29.88,WNW,283,5.6,5.6,24,0.00,,SKC,0.00,VWS V14.01,2013-01-25 12:40:00,
2013-01-25 07:45:00,12.2,-17.7,29.91,WNW,284,4.8,4.8,24,0.00,,SKC,0.00,VWS V14.01,2013-01-25 12:45:00,
2013-01-25 07:50:00,12.4,-17.5,29.91,WNW,301,0.0,0.0,24,0.00,,SKC,0.00,VWS V14.01,2013-01-25 12:50:00,
2013-01-25 07:55:00,12.6,-17.4,29.91,North,353,4.8,4.8,24,0.00,,SKC,0.00,VWS V14.01,2013-01-25 12:55:00,
2013-01-25 08:00:00,12.6,-17.4,29.88,North,0,0.0,0.0,24,0.00,,SKC,0.00,VWS V14.01,2013-01-25 13:00:00,
2013-01-25 08:05:00,12.9,-17.1,29.88,North,0,0.0,0.0,24,0.00,,SKC,0.00,VWS V14.01,2013-01-25 13:05:00,
2013-01-25 08:10:00,13.1,-16.9,29.88,NW,322,4.0,4.0,24,0.00,,SKC,0.00,VWS V14.01,2013-01-25 13:10:00,
2013-01-25 08:15:00,13.3,-16.8,29.88,West,267,0.0,0.0,24,0.00,,SKC,0.00,VWS V14.01,2013-01-25 13:15:00,
2013-01-25 08:20:00,13.3,-16.8,29.88,NW,312,0.0,4.0,24,0.00,,SKC,0.00,VWS V14.01,2013-01-25 13:20:00,
2013-01-25 08:25:00,13.3,-16.8,29.88,NW,316,0.0,3.6,24,0.00,,SKC,0.00,VWS V14.01,2013-01-25 13:25:00,
2013-01-25 08:30:00,13.8,-16.3,29.88,WNW,294,4.0,4.0,24,0.00,,SKC,0.00,VWS V14.01,2013-01-25 13:30:00,
2013-01-25 08:35:00,13.8,-8.2,29.88,West,259,5.6,5.6,36,0.00,,SKC,0.00,VWS V14.01,2013-01-25 13:35:00,
2013-01-25 08:40:00,14.2,-8.4,29.88,North,2,4.8,4.8,35,0.00,,SKC,0.00,VWS V14.01,2013-01-25 13:40:00,
2013-01-25 08:45:00,14.2,-9.0,29.88,NW,305,6.4,6.4,34,0.00,,SKC,0.00,VWS V14.01,2013-01-25 13:45:00,
2013-01-25 08:50:00,14.4,-8.3,29.88,ENE,65,5.6,5.6,35,0.00,,SKC,0.00,VWS V14.01,2013-01-25 13:50:00,
2013-01-25 08:55:00,14.5,-8.1,29.88,SE,125,0.0,0.0,35,0.00,,SKC,0.00,VWS V14.01,2013-01-25 13:55:00,
2013-01-25 09:00:00,14.4,-8.9,29.88,SE,141,0.0,2.7,34,0.00,,SKC,0.00,VWS V14.01,2013-01-25 14:00:00,
2013-01-25 09:05:00,14.4,-8.9,29.88,NNE,29,5.6,5.6,34,0.00,,SKC,0.00,VWS V14.01,2013-01-25 14:05:00,
2013-01-25 09:10:00,14.4,-8.9,29.88,NW,326,5.6,5.6,34,0.00,,SKC,0.00,VWS V14.01,2013-01-25 14:10:00,
2013-01-25 09:15:00,14.4,-8.9,29.88,ENE,58,5.6,5.6,34,0.00,,SKC,0.00,VWS V14.01,2013-01-25 14:15:00,
2013-01-25 09:20:00,14.5,-8.7,29.88,NW,304,6.4,6.4,34,0.00,,SKC,0.00,VWS V14.01,2013-01-25 14:20:00,
2013-01-25 09:25:00,14.5,-8.7,29.88,NNE,22,6.4,6.4,34,0.00,,SKC,0.00,VWS V14.01,2013-01-25 14:25:00,
2013-01-25 09:30:00,14.9,-10.3,29.88,NE,41,4.0,4.0,31,0.00,,SKC,0.00,VWS V14.01,2013-01-25 14:30:00,
2013-01-25 09:35:00,15.1,-10.1,29.88,WNW,296,4.0,4.0,31,0.00,,SKC,0.00,VWS V14.01,2013-01-25 14:35:00,
2013-01-25 09:40:00,15.1,-10.1,29.88,NNE,15,0.0,2.7,31,0.00,,SKC,0.00,VWS V14.01,2013-01-25 14:40:00,
2013-01-25 09:45:00,15.3,-9.9,29.91,WSW,250,7.2,7.2,31,0.00,,SKC,0.00,VWS V14.01,2013-01-25 14:45:00,
2013-01-25 09:50:00,15.4,-9.8,29.91,NE,41,0.0,3.6,31,0.00,,SKC,0.00,VWS V14.01,2013-01-25 14:50:00,
2013-01-25 09:55:00,15.8,-9.5,29.91,East,101,0.0,0.0,31,0.00,,SKC,0.00,VWS V14.01,2013-01-25 14:55:00,
2013-01-25 09:59:00,16.2,-9.1,29.91,NW,315,5.6,5.6,31,0.00,,SKC,0.00,VWS V14.01,2013-01-25 14:59:00,
2013-01-25 10:04:00,16.0,-9.3,29.91,North,353,0.0,0.0,31,0.00,,SKC,0.00,VWS V14.01,2013-01-25 15:04:00,
2013-01-25 10:10:00,16.2,-9.1,29.91,NNE,26,4.0,4.0,31,0.00,,SKC,0.00,VWS V14.01,2013-01-25 15:10:00,
2013-01-25 10:15:00,16.5,-8.8,29.91,NNE,23,0.0,0.0,31,0.00,,SKC,0.00,VWS V14.01,2013-01-25 15:15:00,
2013-01-25 10:20:00,16.9,-8.5,29.91,NW,308,4.0,4.0,31,0.00,,SKC,0.00,VWS V14.01,2013-01-25 15:20:00,
2013-01-25 10:24:00,17.1,-8.4,29.91,NW,324,0.0,0.0,31,0.00,,SKC,0.00,VWS V14.01,2013-01-25 15:24:00,
2013-01-25 10:29:00,17.6,-7.9,29.88,WNW,288,0.0,0.0,31,0.00,,SKC,0.00,VWS V14.01,2013-01-25 15:29:00,
2013-01-25 10:34:00,17.8,-9.8,29.88,NNE,15,4.0,4.0,28,0.00,,SKC,0.00,VWS V14.01,2013-01-25 15:34:00,
2013-01-25 10:39:00,17.6,-9.9,29.88,NE,52,4.8,4.8,28,0.00,,SKC,0.00,VWS V14.01,2013-01-25 15:39:00,
2013-01-25 10:44:00,17.6,-9.9,29.88,North,5,0.0,0.0,28,0.00,,SKC,0.00,VWS V14.01,2013-01-25 15:44:00,
2013-01-25 10:49:00,17.6,-9.9,29.88,West,273,4.8,4.8,28,0.00,,SKC,0.00,VWS V14.01,2013-01-25 15:49:00,
2013-01-25 10:54:00,18.1,-9.5,29.88,SSE,151,5.6,5.6,28,0.00,,SKC,0.00,VWS V14.01,2013-01-25 15:54:00,
2013-01-25 10:59:00,18.3,-11.6,29.85,NE,45,4.0,4.0,25,0.00,,SKC,0.00,VWS V14.01,2013-01-25 15:59:00,
2013-01-25 11:04:00,18.1,-11.8,29.85,NNW,331,0.0,0.0,25,0.00,,SKC,0.00,VWS V14.01,2013-01-25 16:04:00,
2013-01-25 11:09:00,19.0,-4.7,29.85,ENE,76,8.1,8.1,34,0.00,,SKC,0.00,VWS V14.01,2013-01-25 16:09:00,
2013-01-25 11:14:00,19.2,-10.8,29.88,NE,41,6.4,6.4,25,0.00,,SKC,0.00,VWS V14.01,2013-01-25 16:14:00,
2013-01-25 11:19:00,19.2,-10.8,29.88,SSW,203,6.4,6.4,25,0.00,,SKC,0.00,VWS V14.01,2013-01-25 16:19:00,
2013-01-25 11:24:00,19.2,-10.8,29.88,SSE,147,0.0,2.7,25,0.00,,SKC,0.00,VWS V14.01,2013-01-25 16:24:00,
2013-01-25 11:29:00,19.8,-6.7,29.85,SW,222,4.8,4.8,30,0.00,,SKC,0.00,VWS V14.01,2013-01-25 16:29:00,
2013-01-25 11:34:00,19.9,-10.2,29.85,SSW,200,0.0,0.0,25,0.00,,SKC,0.00,VWS V14.01,2013-01-25 16:34:00,
2013-01-25 11:39:00,19.9,-10.2,29.85,ESE,112,5.6,5.6,25,0.00,,SKC,0.00,VWS V14.01,2013-01-25 16:39:00,
2013-01-25 11:44:00,19.6,-10.5,29.83,East,90,0.0,2.2,25,0.00,,SKC,0.00,VWS V14.01,2013-01-25 16:44:00,
2013-01-25 11:49:00,19.6,-10.5,29.83,North,353,4.8,4.8,25,0.00,,SKC,0.00,VWS V14.01,2013-01-25 16:49:00,
2013-01-25 11:54:00,19.6,-10.5,29.83,North,10,0.0,0.0,25,0.00,,SKC,0.00,VWS V14.01,2013-01-25 16:54:00,
2013-01-25 11:59:00,19.4,-10.7,29.83,NE,54,0.0,2.7,25,0.00,,SKC,0.00,VWS V14.01,2013-01-25 16:59:00,
2013-01-25 12:04:00,19.6,-10.5,29.83,NE,53,0.0,0.0,25,0.00,,SKC,0.00,VWS V14.01,2013-01-25 17:04:00,
2013-01-25 12:09:00,19.8,-10.4,29.83,SE,126,4.8,4.8,25,0.00,,SKC,0.00,VWS V14.01,2013-01-25 17:09:00,
2013-01-25 12:14:00,19.8,-12.9,29.83,NE,49,0.0,0.0,22,0.00,,SKC,0.00,VWS V14.01,2013-01-25 17:14:00,
2013-01-25 12:19:00,19.8,-12.9,29.83,ESE,105,5.6,5.6,22,0.00,,SKC,0.00,VWS V14.01,2013-01-25 17:19:00,
2013-01-25 12:24:00,19.9,-10.2,29.83,ESE,120,0.0,0.0,25,0.00,,SKC,0.00,VWS V14.01,2013-01-25 17:24:00,
2013-01-25 12:29:00,20.5,-9.7,29.80,SE,134,4.8,4.8,25,0.00,,SKC,0.00,VWS V14.01,2013-01-25 17:29:00,
2013-01-25 12:34:00,21.0,-9.3,29.80,SW,220,0.0,0.0,25,0.00,,SKC,0.00,VWS V14.01,2013-01-25 17:34:00,
2013-01-25 12:39:00,21.7,-2.9,29.80,SSW,205,0.0,0.0,33,0.00,,SKC,0.00,VWS V14.01,2013-01-25 17:39:00,
2013-01-25 12:44:00,21.7,-3.6,29.80,SSW,205,0.0,0.0,32,0.00,,SKC,0.00,VWS V14.01,2013-01-25 17:44:00,
2013-01-25 12:49:00,21.7,-4.9,29.80,WSW,237,0.0,2.7,30,0.00,,SKC,0.00,VWS V14.01,2013-01-25 17:49:00,
2013-01-25 12:54:00,21.4,-9.0,29.80,WNW,286,4.8,4.8,25,0.00,,SKC,0.00,VWS V14.01,2013-01-25 17:54:00,
2013-01-25 12:59:00,21.2,-7.6,29.80,WSW,258,0.0,0.0,27,0.00,,SKC,0.00,VWS V14.01,2013-01-25 17:59:00,
2013-01-25 13:04:00,21.6,-8.8,29.80,SSE,150,7.2,7.2,25,0.00,,SKC,0.00,VWS V14.01,2013-01-25 18:04:00,
2013-01-25 13:09:00,21.6,-7.2,29.80,SSW,200,0.0,0.0,27,0.00,,SKC,0.00,VWS V14.01,2013-01-25 18:09:00,
2013-01-25 13:14:00,21.9,-8.5,29.77,ESE,116,9.7,9.7,25,0.00,,SKC,0.00,VWS V14.01,2013-01-25 18:14:00,
2013-01-25 13:19:00,21.6,-11.4,29.77,SE,131,4.8,4.8,22,0.00,,SKC,0.00,VWS V14.01,2013-01-25 18:19:00,
2013-01-25 13:24:00,21.4,-9.0,29.77,SE,133,0.0,2.7,25,0.00,,SKC,0.00,VWS V14.01,2013-01-25 18:24:00,
2013-01-25 13:29:00,21.9,-8.5,29.77,West,261,4.8,4.8,25,0.00,,SKC,0.00,VWS V14.01,2013-01-25 18:29:00,
2013-01-25 13:34:00,21.9,-11.1,29.77,SSE,163,0.0,3.1,22,0.00,,SKC,0.00,VWS V14.01,2013-01-25 18:34:00,
2013-01-25 13:39:00,22.1,-8.3,29.77,SW,233,4.8,4.8,25,0.00,,SKC,0.00,VWS V14.01,2013-01-25 18:39:00,
2013-01-25 13:44:00,21.9,-11.1,29.77,WNW,292,0.0,3.1,22,0.00,,SKC,0.00,VWS V14.01,2013-01-25 18:44:00,
2013-01-25 13:49:00,21.9,-11.1,29.77,WSW,243,0.0,2.7,22,0.00,,SKC,0.00,VWS V14.01,2013-01-25 18:49:00,
2013-01-25 13:54:00,22.3,-10.8,29.77,WSW,249,0.0,2.7,22,0.00,,SKC,0.00,VWS V14.01,2013-01-25 18:54:00,
2013-01-25 13:59:00,22.3,-10.8,29.74,WNW,295,0.0,0.0,22,0.00,,SKC,0.00,VWS V14.01,2013-01-25 18:59:00,
2013-01-25 14:04:00,22.5,-8.0,29.74,WSW,239,0.0,2.2,25,0.00,,SKC,0.00,VWS V14.01,2013-01-25 19:04:00,
2013-01-25 14:09:00,22.5,-10.6,29.74,South,171,0.0,4.0,22,0.00,,SKC,0.00,VWS V14.01,2013-01-25 19:09:00,
2013-01-25 14:14:00,22.5,-10.6,29.74,WNW,294,0.0,0.0,22,0.00,,SKC,0.00,VWS V14.01,2013-01-25 19:14:00,
2013-01-25 14:19:00,22.3,-10.8,29.74,SSE,155,7.2,7.2,22,0.00,,SKC,0.00,VWS V14.01,2013-01-25 19:19:00,
2013-01-25 14:24:00,22.1,-10.9,29.74,SSE,155,0.0,0.0,22,0.00,,SKC,0.00,VWS V14.01,2013-01-25 19:24:00,
2013-01-25 14:29:00,22.5,-8.0,29.74,WSW,251,4.0,4.0,25,0.00,,SKC,0.00,VWS V14.01,2013-01-25 19:29:00,
2013-01-25 14:34:00,22.5,-10.6,29.74,SSW,192,4.0,4.0,22,0.00,,SKC,0.00,VWS V14.01,2013-01-25 19:34:00,
2013-01-25 14:39:00,22.5,-10.6,29.74,West,268,0.0,0.0,22,0.00,,SKC,0.00,VWS V14.01,2013-01-25 19:39:00,
2013-01-25 14:44:00,22.8,-7.7,29.74,SW,234,4.0,4.0,25,0.00,,SKC,0.00,VWS V14.01,2013-01-25 19:44:00,
2013-01-25 14:49:00,22.8,-10.3,29.74,SSE,152,0.0,2.2,22,0.00,,SKC,0.00,VWS V14.01,2013-01-25 19:49:00,
2013-01-25 14:54:00,22.6,-10.5,29.74,SSW,194,0.0,3.1,22,0.00,,SKC,0.00,VWS V14.01,2013-01-25 19:54:00,
2013-01-25 14:59:00,22.6,-10.5,29.71,SSE,147,8.9,8.9,22,0.00,,SKC,0.00,VWS V14.01,2013-01-25 19:59:00,
2013-01-25 15:04:00,22.3,-10.8,29.71,SSW,212,4.8,4.8,22,0.00,,SKC,0.00,VWS V14.01,2013-01-25 20:04:00,
2013-01-25 15:09:00,22.3,-10.8,29.71,SE,143,5.6,5.6,22,0.00,,SKC,0.00,VWS V14.01,2013-01-25 20:09:00,
2013-01-25 15:14:00,22.1,-10.9,29.71,SSE,153,4.0,4.0,22,0.00,,SKC,0.00,VWS V14.01,2013-01-25 20:14:00,
2013-01-25 15:19:00,22.1,-10.9,29.71,South,172,4.0,4.0,22,0.00,,SKC,0.00,VWS V14.01,2013-01-25 20:19:00,
2013-01-25 15:24:00,22.1,-10.9,29.71,South,172,0.0,3.1,22,0.00,,SKC,0.00,VWS V14.01,2013-01-25 20:24:00,
2013-01-25 15:29:00,22.1,-10.9,29.71,SSE,157,4.0,4.0,22,0.00,,SKC,0.00,VWS V14.01,2013-01-25 20:29:00,
2013-01-25 15:34:00,22.1,-10.9,29.71,SSE,160,0.0,3.1,22,0.00,,SKC,0.00,VWS V14.01,2013-01-25 20:34:00,
2013-01-25 15:39:00,22.3,-10.8,29.71,South,172,4.8,4.8,22,0.00,,SKC,0.00,VWS V14.01,2013-01-25 20:39:00,
2013-01-25 15:44:00,22.3,-10.8,29.71,South,186,0.0,0.0,22,0.00,,SKC,0.00,VWS V14.01,2013-01-25 20:44:00,
2013-01-25 15:49:00,22.3,-10.8,29.71,SSE,155,4.8,4.8,22,0.00,,SKC,0.00,VWS V14.01,2013-01-25 20:49:00,
2013-01-25 15:54:00,22.6,-10.5,29.71,SSW,196,4.8,4.8,22,0.00,,SKC,0.00,VWS V14.01,2013-01-25 20:54:00,
2013-01-25 15:59:00,22.5,-10.6,29.71,South,182,5.6,5.6,22,0.00,,SKC,0.00,VWS V14.01,2013-01-25 20:59:00,
2013-01-25 16:04:00,22.3,-10.8,29.71,SSW,194,4.0,4.0,22,0.00,,SKC,0.00,VWS V14.01,2013-01-25 21:04:00,
2013-01-25 16:09:00,22.1,-10.9,29.71,SSE,160,7.2,7.2,22,0.00,,SKC,0.00,VWS V14.01,2013-01-25 21:09:00,
2013-01-25 16:14:00,22.1,-10.9,29.71,SSE,147,4.8,4.8,22,0.00,,SKC,0.00,VWS V14.01,2013-01-25 21:14:00,
2013-01-25 16:19:00,22.1,-10.9,29.71,South,170,6.4,6.4,22,0.00,,SKC,0.00,VWS V14.01,2013-01-25 21:19:00,
2013-01-25 16:24:00,22.1,-10.9,29.71,SW,220,4.8,4.8,22,0.00,,SKC,0.00,VWS V14.01,2013-01-25 21:24:00,
2013-01-25 16:29:00,22.1,-10.9,29.71,SSW,204,4.0,4.0,22,0.00,,SKC,0.00,VWS V14.01,2013-01-25 21:29:00,
2013-01-25 16:34:00,22.1,-10.9,29.71,SSW,206,5.6,5.6,22,0.00,,SKC,0.00,VWS V14.01,2013-01-25 21:34:00,
2013-01-25 16:39:00,22.1,-10.9,29.71,SSW,203,5.6,5.6,22,0.00,,SKC,0.00,VWS V14.01,2013-01-25 21:39:00,
2013-01-25 16:44:00,22.1,-10.9,29.68,SSW,207,0.0,0.0,22,0.00,,SKC,0.00,VWS V14.01,2013-01-25 21:44:00,
2013-01-25 16:49:00,22.3,-10.8,29.68,SSW,206,0.0,0.0,22,0.00,,SKC,0.00,VWS V14.01,2013-01-25 21:49:00,
2013-01-25 16:54:00,22.5,-10.6,29.68,South,184,4.8,4.8,22,0.00,,SKC,0.00,VWS V14.01,2013-01-25 21:54:00,
2013-01-25 16:59:00,22.5,-10.6,29.68,South,185,0.0,0.0,22,0.00,,SKC,0.00,VWS V14.01,2013-01-25 21:59:00,
2013-01-25 17:04:00,22.3,-10.8,29.68,South,181,6.4,6.4,22,0.00,,SKC,0.00,VWS V14.01,2013-01-25 22:04:00,
2013-01-25 17:09:00,22.5,-10.6,29.68,SSW,207,4.8,4.8,22,0.00,,SKC,0.00,VWS V14.01,2013-01-25 22:09:00,
2013-01-25 17:13:00,22.3,-10.8,29.68,SSW,207,0.0,2.2,22,0.00,,SKC,0.00,VWS V14.01,2013-01-25 22:13:00,
2013-01-25 17:18:00,22.8,-7.7,29.68,South,184,5.6,5.6,25,0.00,,SKC,0.00,VWS V14.01,2013-01-25 22:18:00,
2013-01-25 17:23:00,22.6,-7.9,29.68,South,169,4.0,4.0,25,0.00,,SKC,0.00,VWS V14.01,2013-01-25 22:23:00,
2013-01-25 17:28:00,21.7,-8.6,29.68,South,191,11.3,11.3,25,0.00,,SKC,0.00,VWS V14.01,2013-01-25 22:28:00,
2013-01-25 17:33:00,21.4,-7.4,29.68,SSE,168,4.8,5.4,27,0.00,,SKC,0.00,VWS V14.01,2013-01-25 22:33:00,
2013-01-25 17:38:00,21.0,-5.5,29.68,South,186,7.2,7.2,30,0.00,,SKC,0.00,VWS V14.01,2013-01-25 22:38:00,
2013-01-25 17:43:00,20.5,-4.0,29.68,SSW,194,4.8,4.8,33,0.00,,SKC,0.00,VWS V14.01,2013-01-25 22:43:00,
2013-01-25 17:48:00,20.1,-3.1,29.68,SSW,194,4.8,4.8,35,0.00,,SKC,0.00,VWS V14.01,2013-01-25 22:48:00,
2013-01-25 17:53:00,20.3,-1.2,29.68,SSW,197,0.0,0.0,38,0.00,,SKC,0.00,VWS V14.01,2013-01-25 22:53:00,
2013-01-25 17:58:00,20.3,-0.7,29.65,South,191,4.8,4.8,39,0.00,,SKC,0.00,VWS V14.01,2013-01-25 22:58:00,
2013-01-25 18:03:00,19.8,0.4,29.65,South,173,5.6,5.6,42,0.00,,SKC,0.00,VWS V14.01,2013-01-25 23:03:00,
2013-01-25 18:08:00,19.4,0.6,29.65,South,185,4.8,4.8,43,0.00,,SKC,0.00,VWS V14.01,2013-01-25 23:08:00,
2013-01-25 18:13:00,19.2,0.9,29.65,South,176,0.0,0.0,44,0.00,,SKC,0.00,VWS V14.01,2013-01-25 23:13:00,
2013-01-25 18:18:00,19.4,1.5,29.65,SSE,168,8.1,8.1,45,0.00,,SKC,0.00,VWS V14.01,2013-01-25 23:18:00,
2013-01-25 18:23:00,19.0,1.2,29.65,South,183,0.0,0.0,45,0.00,,SKC,0.00,VWS V14.01,2013-01-25 23:23:00,
2013-01-25 18:28:00,19.0,1.2,29.65,South,182,4.8,4.8,45,0.00,,SKC,0.00,VWS V14.01,2013-01-25 23:28:00,
2013-01-25 18:33:00,19.0,1.2,29.65,SSW,193,5.6,5.6,45,0.00,,SKC,0.00,VWS V14.01,2013-01-25 23:33:00,
2013-01-25 18:38:00,18.9,1.5,29.65,SSW,193,0.0,0.0,46,0.00,,SKC,0.00,VWS V14.01,2013-01-25 23:38:00,
2013-01-25 18:43:00,18.9,1.5,29.65,SSW,193,0.0,0.0,46,0.00,,SKC,0.00,VWS V14.01,2013-01-25 23:43:00,
2013-01-25 18:48:00,19.0,1.7,29.65,SSW,193,0.0,0.0,46,0.00,,SKC,0.00,VWS V14.01,2013-01-25 23:48:00,
2013-01-25 18:53:00,19.2,1.8,29.65,SSW,193,0.0,0.0,46,0.00,,SKC,0.00,VWS V14.01,2013-01-25 23:53:00,
2013-01-25 18:58:00,19.2,2.3,29.65,South,191,4.0,4.0,47,0.00,,SKC,0.00,VWS V14.01,2013-01-25 23:58:00,
2013-01-25 19:03:00,19.2,2.3,29.65,South,191,0.0,0.0,47,0.00,,SKC,0.00,VWS V14.01,2013-01-26 00:03:00,
2013-01-25 19:08:00,19.2,2.3,29.65,SSW,192,0.0,0.0,47,0.00,,SKC,0.00,VWS V14.01,2013-01-26 00:08:00,
2013-01-25 19:13:00,19.2,2.3,29.65,South,191,0.0,2.7,47,0.00,,SKC,0.00,VWS V14.01,2013-01-26 00:13:00,
2013-01-25 19:18:00,19.0,2.6,29.65,SSW,192,0.0,0.0,48,0.00,,SKC,0.00,VWS V14.01,2013-01-26 00:18:00,
2013-01-25 19:23:00,18.9,2.4,29.65,SSW,192,0.0,0.0,48,0.00,,SKC,0.00,VWS V14.01,2013-01-26 00:23:00,
2013-01-25 19:28:00,18.9,2.4,29.65,SSW,192,0.0,0.0,48,0.00,,SKC,0.00,VWS V14.01,2013-01-26 00:28:00,
2013-01-25 19:33:00,18.9,2.9,29.65,SSW,192,0.0,0.0,49,0.00,,SKC,0.00,VWS V14.01,2013-01-26 00:33:00,
2013-01-25 19:38:00,18.9,3.3,29.65,SSW,192,0.0,0.0,50,0.00,,SKC,0.00,VWS V14.01,2013-01-26 00:38:00,
2013-01-25 19:43:00,18.7,3.1,29.62,SSW,192,6.4,6.4,50,0.00,,SKC,0.00,VWS V14.01,2013-01-26 00:43:00,
2013-01-25 19:48:00,18.5,2.5,29.62,South,191,0.0,0.0,49,0.00,,SKC,0.00,VWS V14.01,2013-01-26 00:48:00,
2013-01-25 19:53:00,18.3,2.4,29.62,SSW,192,0.0,0.0,49,0.00,,SKC,0.00,VWS V14.01,2013-01-26 00:53:00,
2013-01-25 19:58:00,18.3,2.8,29.62,South,191,0.0,0.0,50,0.00,,SKC,0.00,VWS V14.01,2013-01-26 00:58:00,
2013-01-25 20:03:00,18.3,2.8,29.62,South,191,0.0,0.0,50,0.00,,SKC,0.00,VWS V14.01,2013-01-26 01:03:00,
2013-01-25 20:08:00,18.3,2.8,29.62,South,191,0.0,0.0,50,0.00,,SKC,0.00,VWS V14.01,2013-01-26 01:08:00,
2013-01-25 20:13:00,18.3,2.8,29.62,South,191,0.0,0.0,50,0.00,,SKC,0.00,VWS V14.01,2013-01-26 01:13:00,
2013-01-25 20:18:00,18.3,2.8,29.62,SSW,192,0.0,0.0,50,0.00,,SKC,0.00,VWS V14.01,2013-01-26 01:18:00,
2013-01-25 20:23:00,18.3,2.8,29.62,South,191,0.0,0.0,50,0.00,,SKC,0.00,VWS V14.01,2013-01-26 01:23:00,
2013-01-25 20:28:00,18.3,2.8,29.62,South,191,0.0,0.0,50,0.00,,SKC,0.00,VWS V14.01,2013-01-26 01:28:00,
2013-01-25 20:33:00,18.3,2.8,29.62,South,191,4.8,4.8,50,0.00,,SKC,0.00,VWS V14.01,2013-01-26 01:33:00,
2013-01-25 20:38:00,18.3,2.8,29.62,South,191,0.0,0.0,50,0.00,,SKC,0.00,VWS V14.01,2013-01-26 01:38:00,
2013-01-25 20:43:00,18.3,2.8,29.62,South,191,0.0,0.0,50,0.00,,SKC,0.00,VWS V14.01,2013-01-26 01:43:00,
2013-01-25 20:48:00,18.3,2.8,29.62,South,191,0.0,0.0,50,0.00,,SKC,0.00,VWS V14.01,2013-01-26 01:48:00,
2013-01-25 20:53:00,18.1,2.6,29.62,South,191,0.0,0.0,50,0.00,,SKC,0.00,VWS V14.01,2013-01-26 01:53:00,
2013-01-25 20:58:00,18.1,2.6,29.62,SSW,192,0.0,0.0,50,0.00,,SKC,0.00,VWS V14.01,2013-01-26 01:58:00,
2013-01-25 21:03:00,18.0,2.5,29.62,South,191,0.0,0.0,50,0.00,,SKC,0.00,VWS V14.01,2013-01-26 02:03:00,
2013-01-25 21:08:00,18.0,2.5,29.62,South,191,0.0,0.0,50,0.00,,SKC,0.00,VWS V14.01,2013-01-26 02:08:00,
2013-01-25 21:13:00,17.8,2.3,29.59,South,191,0.0,0.0,50,0.00,,SKC,0.00,VWS V14.01,2013-01-26 02:13:00,
2013-01-25 21:18:00,17.6,2.6,29.59,South,191,0.0,0.0,51,0.00,,SKC,0.00,VWS V14.01,2013-01-26 02:18:00,
2013-01-25 21:23:00,17.4,2.0,29.59,SSW,192,0.0,0.0,50,0.00,,SKC,0.00,VWS V14.01,2013-01-26 02:23:00,
2013-01-25 21:28:00,17.1,1.6,29.59,South,191,0.0,0.0,50,0.00,,SKC,0.00,VWS V14.01,2013-01-26 02:28:00,
2013-01-25 21:33:00,17.1,2.1,29.59,SSW,192,0.0,0.0,51,0.00,,SKC,0.00,VWS V14.01,2013-01-26 02:33:00,
2013-01-25 21:38:00,17.1,2.1,29.59,South,191,0.0,0.0,51,0.00,,SKC,0.00,VWS V14.01,2013-01-26 02:38:00,
2013-01-25 21:43:00,16.7,1.3,29.59,South,191,0.0,0.0,50,0.00,,SKC,0.00,VWS V14.01,2013-01-26 02:43:00,
2013-01-25 21:48:00,16.5,1.1,29.59,SSW,192,0.0,0.0,50,0.00,,SKC,0.00,VWS V14.01,2013-01-26 02:48:00,
2013-01-25 21:53:00,16.3,1.4,29.59,South,191,0.0,0.0,51,0.00,,SKC,0.00,VWS V14.01,2013-01-26 02:53:00,
2013-01-25 21:58:00,16.3,1.4,29.59,South,191,0.0,0.0,51,0.00,,SKC,0.00,VWS V14.01,2013-01-26 02:58:00,
2013-01-25 22:03:00,16.3,1.4,29.59,SSW,192,0.0,0.0,51,0.00,,SKC,0.00,VWS V14.01,2013-01-26 03:03:00,
2013-01-25 22:08:00,16.5,1.6,29.59,South,191,0.0,0.0,51,0.00,,SKC,0.00,VWS V14.01,2013-01-26 03:08:00,
2013-01-25 22:13:00,16.5,1.6,29.59,SSW,192,0.0,0.0,51,0.00,,SKC,0.00,VWS V14.01,2013-01-26 03:13:00,
2013-01-25 22:18:00,16.2,1.2,29.59,SSW,192,0.0,0.0,51,0.00,,SKC,0.00,VWS V14.01,2013-01-26 03:18:00,
2013-01-25 22:23:00,15.8,0.9,29.59,South,191,0.0,0.0,51,0.00,,SKC,0.00,VWS V14.01,2013-01-26 03:23:00,
2013-01-25 22:28:00,15.4,1.0,29.59,South,191,0.0,0.0,52,0.00,,SKC,0.00,VWS V14.01,2013-01-26 03:28:00,
2013-01-25 22:33:00,15.3,0.8,29.59,South,191,0.0,0.0,52,0.00,,SKC,0.00,VWS V14.01,2013-01-26 03:33:00,
2013-01-25 22:38:00,15.1,0.6,29.59,South,191,0.0,0.0,52,0.00,,SKC,0.00,VWS V14.01,2013-01-26 03:38:00,
2013-01-25 22:42:00,15.1,0.6,29.59,SSW,192,0.0,0.0,52,0.00,,SKC,0.00,VWS V14.01,2013-01-26 03:42:00,
2013-01-25 22:47:00,14.9,0.5,29.59,SSW,192,0.0,0.0,52,0.00,,SKC,0.00,VWS V14.01,2013-01-26 03:47:00,
2013-01-25 22:52:00,14.5,-0.3,29.59,South,191,0.0,0.0,51,0.00,,SKC,0.00,VWS V14.01,2013-01-26 03:52:00,
2013-01-25 22:57:00,14.4,0.0,29.59,South,191,0.0,0.0,52,0.00,,SKC,0.00,VWS V14.01,2013-01-26 03:57:00,
2013-01-25 23:02:00,14.4,0.0,29.59,SSW,192,0.0,0.0,52,0.00,,SKC,0.00,VWS V14.01,2013-01-26 04:02:00,
2013-01-25 23:07:00,14.2,-0.2,29.59,South,191,0.0,0.0,52,0.00,,SKC,0.00,VWS V14.01,2013-01-26 04:07:00,
2013-01-25 23:12:00,13.8,-0.5,29.59,SSW,192,0.0,0.0,52,0.00,,SKC,0.00,VWS V14.01,2013-01-26 04:12:00,
2013-01-25 23:17:00,13.8,-0.5,29.59,South,191,0.0,0.0,52,0.00,,SKC,0.00,VWS V14.01,2013-01-26 04:17:00,
2013-01-25 23:22:00,13.8,-0.5,29.59,South,191,0.0,0.0,52,0.00,,SKC,0.00,VWS V14.01,2013-01-26 04:22:00,
2013-01-25 23:27:00,13.6,-0.7,29.59,South,191,0.0,0.0,52,0.00,,SKC,0.00,VWS V14.01,2013-01-26 04:27:00,
2013-01-25 23:32:00,13.5,-0.9,29.59,South,191,0.0,0.0,52,0.00,,SKC,0.00,VWS V14.01,2013-01-26 04:32:00,
2013-01-25 23:37:00,13.5,-0.9,29.59,South,191,0.0,0.0,52,0.00,,SKC,0.00,VWS V14.01,2013-01-26 04:37:00,
2013-01-25 23:42:00,13.5,-0.9,29.59,SSW,192,0.0,0.0,52,0.00,,SKC,0.00,VWS V14.01,2013-01-26 04:42:00,
2013-01-25 23:47:00,13.3,-1.0,29.59,South,191,0.0,0.0,52,0.00,,SKC,0.00,VWS V14.01,2013-01-26 04:47:00,
2013-01-25 23:52:00,13.1,-1.2,29.59,South,191,0.0,0.0,52,0.00,,SKC,0.00,VWS V14.01,2013-01-26 04:52:00,
2013-01-25 23:57:00,12.9,-1.4,29.59,South,191,0.0,0.0,52,0.00,,SKC,0.00,VWS V14.01,2013-01-26 04:57:00,